Time,TemperatureF,DewpointF,PressureIn,WindDirection,WindDirectionDegrees,WindSpeedMPH,WindSpeedGustMPH,Humidity,HourlyPrecipIn,Conditions,Clouds,dailyrainin,SoftwareType,DateUTC
2013-07-13 00:02:00,73.9,63.9,29.06,South,180,15.0,15.0,71,0.00,CLR,,0.00,WeatherDisplay:10.37,2013-07-13 05:02:00,
2013-07-13 00:07:00,73.8,63.8,29.06,South,180,15.0,15.0,71,0.00,CLR,,0.00,WeatherDisplay:10.37,2013-07-13 05:07:00,
2013-07-13 00:12:00,73.6,62.4,29.06,South,180,15.0,15.0,68,0.00,CLR,,0.00,WeatherDisplay:10.37,2013-07-13 05:12:00,
2013-07-13 00:17:00,73.6,63.2,29.06,South,180,13.8,13.8,70,0.00,CLR,,0.00,WeatherDisplay:10.37,2013-07-13 05:17:00,
2013-07-13 00:22:00,73.6,63.6,29.06,South,180,13.8,13.8,71,0.00,CLR,,0.00,WeatherDisplay:10.37,2013-07-13 05:22:00,
2013-07-13 00:27:00,73.4,62.6,29.06,South,180,12.7,12.7,69,0.00,CLR,,0.00,WeatherDisplay:10.37,2013-07-13 05:27:00,
2013-07-13 00:32:00,73.4,63.0,29.06,South,180,15.0,15.0,70,0.00,CLR,,0.00,WeatherDisplay:10.37,2013-07-13 05:32:00,
2013-07-13 00:37:00,73.4,63.4,29.06,South,180,15.0,15.0,71,0.00,CLR,,0.00,WeatherDisplay:10.37,2013-07-13 05:37:00,
2013-07-13 00:42:00,73.2,63.2,29.06,South,180,15.0,15.0,71,0.00,CLR,,0.00,WeatherDisplay:10.37,2013-07-13 05:42:00,
2013-07-13 00:47:00,73.0,62.7,29.06,SSE,158,16.1,16.1,70,0.00,CLR,,0.00,WeatherDisplay:10.37,2013-07-13 05:47:00,
2013-07-13 00:52:00,73.0,63.1,29.06,South,180,16.1,16.1,71,0.00,CLR,,0.00,WeatherDisplay:10.37,2013-07-13 05:52:00,
2013-07-13 00:57:00,72.7,62.3,29.06,South,180,15.0,15.0,70,0.00,CLR,,0.00,WeatherDisplay:10.37,2013-07-13 05:57:00,
2013-07-13 01:02:00,72.7,63.1,29.06,South,180,15.0,15.0,72,0.00,CLR,,0.00,WeatherDisplay:10.37,2013-07-13 06:02:00,
2013-07-13 01:07:00,72.7,63.1,29.06,South,180,15.0,15.0,72,0.00,CLR,,0.00,WeatherDisplay:10.37,2013-07-13 06:07:00,
2013-07-13 01:12:00,72.5,63.0,29.06,South,180,15.0,15.0,72,0.00,CLR,,0.00,WeatherDisplay:10.37,2013-07-13 06:12:00,
2013-07-13 01:17:00,72.5,62.6,29.07,South,180,15.0,15.0,71,0.00,CLR,,0.00,WeatherDisplay:10.37,2013-07-13 06:17:00,
2013-07-13 01:22:00,72.3,62.4,29.07,South,180,13.7,13.7,71,0.00,CLR,,0.00,WeatherDisplay:10.37,2013-07-13 06:22:00,
2013-07-13 01:27:00,72.1,62.2,29.07,South,180,12.7,12.7,71,0.00,CLR,,0.00,WeatherDisplay:10.37,2013-07-13 06:27:00,
2013-07-13 01:32:00,72.0,62.0,29.07,South,180,12.7,12.7,71,0.00,CLR,,0.00,WeatherDisplay:10.37,2013-07-13 06:32:00,
2013-07-13 01:37:00,72.1,63.0,29.06,SW,225,9.2,9.2,73,0.00,CLR,,0.00,WeatherDisplay:10.37,2013-07-13 06:37:00,
2013-07-13 01:42:00,72.1,62.6,29.06,South,180,10.4,10.4,72,0.00,CLR,,0.00,WeatherDisplay:10.37,2013-07-13 06:42:00,
2013-07-13 01:47:00,72.1,63.4,29.06,SW,225,10.4,10.4,74,0.00,CLR,,0.00,WeatherDisplay:10.37,2013-07-13 06:47:00,
2013-07-13 01:52:00,72.0,62.8,29.06,South,180,12.7,12.7,73,0.00,CLR,,0.00,WeatherDisplay:10.37,2013-07-13 06:52:00,
2013-07-13 01:57:00,72.0,63.2,29.05,SE,135,10.4,10.4,74,0.00,CLR,,0.00,WeatherDisplay:10.37,2013-07-13 06:57:00,
2013-07-13 02:02:00,71.8,63.4,29.06,South,180,11.5,11.5,75,0.00,CLR,,0.00,WeatherDisplay:10.37,2013-07-13 07:02:00,
2013-07-13 02:07:00,71.4,62.3,29.05,South,180,12.7,12.7,73,0.00,CLR,,0.00,WeatherDisplay:10.37,2013-07-13 07:07:00,
2013-07-13 02:12:00,71.2,62.9,29.05,SE,135,11.5,11.5,75,0.00,CLR,,0.00,WeatherDisplay:10.37,2013-07-13 07:12:00,
2013-07-13 02:17:00,71.2,62.5,29.06,South,180,12.7,12.7,74,0.00,CLR,,0.00,WeatherDisplay:10.37,2013-07-13 07:17:00,
2013-07-13 02:22:00,71.2,62.5,29.06,South,180,12.7,12.7,74,0.00,CLR,,0.00,WeatherDisplay:10.37,2013-07-13 07:22:00,
2013-07-13 02:27:00,71.2,62.5,29.06,South,180,12.7,12.7,74,0.00,CLR,,0.00,WeatherDisplay:10.37,2013-07-13 07:27:00,
2013-07-13 02:32:00,71.4,62.7,29.07,South,180,12.7,12.7,74,0.00,CLR,,0.00,WeatherDisplay:10.37,2013-07-13 07:32:00,
2013-07-13 02:37:00,71.2,62.1,29.07,South,180,12.7,12.7,73,0.00,CLR,,0.00,WeatherDisplay:10.37,2013-07-13 07:37:00,
2013-07-13 02:42:00,71.2,62.1,29.07,South,180,12.7,12.7,73,0.00,CLR,,0.00,WeatherDisplay:10.37,2013-07-13 07:42:00,
2013-07-13 02:47:00,71.1,61.6,29.07,South,180,12.7,12.7,72,0.00,CLR,,0.00,WeatherDisplay:10.37,2013-07-13 07:47:00,
2013-07-13 02:52:00,71.1,61.2,29.07,South,180,12.7,12.7,71,0.00,CLR,,0.00,WeatherDisplay:10.37,2013-07-13 07:52:00,
2013-07-13 02:57:00,71.2,61.7,29.08,South,180,12.7,12.7,72,0.00,CLR,,0.00,WeatherDisplay:10.37,2013-07-13 07:57:00,
2013-07-13 03:02:00,71.1,61.2,29.08,South,180,10.4,10.4,71,0.00,CLR,,0.00,WeatherDisplay:10.37,2013-07-13 08:02:00,
2013-07-13 03:07:00,71.2,62.1,29.08,South,180,10.4,10.4,73,0.00,CLR,,0.00,WeatherDisplay:10.37,2013-07-13 08:07:00,
2013-07-13 03:12:00,71.1,62.0,29.08,South,180,12.7,12.7,73,0.00,CLR,,0.00,WeatherDisplay:10.37,2013-07-13 08:12:00,
2013-07-13 03:17:00,71.1,62.0,29.08,South,180,12.7,12.7,73,0.00,CLR,,0.00,WeatherDisplay:10.37,2013-07-13 08:17:00,
2013-07-13 03:22:00,71.1,62.4,29.07,SW,225,12.7,12.7,74,0.00,CLR,,0.00,WeatherDisplay:10.37,2013-07-13 08:22:00,
2013-07-13 03:27:00,71.1,62.7,29.06,SW,225,13.8,13.8,75,0.00,CLR,,0.00,WeatherDisplay:10.37,2013-07-13 08:27:00,
2013-07-13 03:32:00,71.2,62.5,29.06,SW,225,15.0,15.0,74,0.00,CLR,,0.00,WeatherDisplay:10.37,2013-07-13 08:32:00,
2013-07-13 03:37:00,70.7,62.8,29.05,South,180,10.4,10.4,76,0.00,CLR,,0.00,WeatherDisplay:10.37,2013-07-13 08:37:00,
2013-07-13 03:42:00,70.0,62.1,29.05,SE,135,11.5,11.5,76,0.00,CLR,,0.00,WeatherDisplay:10.37,2013-07-13 08:42:00,
2013-07-13 03:47:00,70.0,62.4,29.04,South,180,11.5,11.5,77,0.00,CLR,,0.00,WeatherDisplay:10.37,2013-07-13 08:47:00,
2013-07-13 03:52:00,69.6,62.1,29.04,SSE,158,10.4,10.4,77,0.00,CLR,,0.00,WeatherDisplay:10.37,2013-07-13 08:52:00,
2013-07-13 03:57:00,69.6,61.7,29.04,South,180,10.4,10.4,76,0.00,CLR,,0.00,WeatherDisplay:10.37,2013-07-13 08:57:00,
2013-07-13 04:02:00,69.4,61.9,29.04,South,180,9.2,9.2,77,0.00,CLR,,0.00,WeatherDisplay:10.37,2013-07-13 09:02:00,
2013-07-13 04:07:00,69.4,62.6,29.04,South,180,10.4,10.4,79,0.00,CLR,,0.00,WeatherDisplay:10.37,2013-07-13 09:07:00,
2013-07-13 04:12:00,69.4,62.6,29.03,SSE,158,10.4,10.4,79,0.00,CLR,,0.00,WeatherDisplay:10.37,2013-07-13 09:12:00,
2013-07-13 04:17:00,69.6,62.8,29.04,SE,135,12.7,12.7,79,0.00,CLR,,0.00,WeatherDisplay:10.37,2013-07-13 09:17:00,
2013-07-13 04:22:00,69.6,62.1,29.04,South,180,15.0,15.0,77,0.00,CLR,,0.00,WeatherDisplay:10.37,2013-07-13 09:22:00,
2013-07-13 04:27:00,69.6,62.1,29.04,South,180,15.0,15.0,77,0.00,CLR,,0.00,WeatherDisplay:10.37,2013-07-13 09:27:00,
2013-07-13 04:32:00,70.0,62.8,29.05,South,180,12.7,12.7,78,0.00,CLR,,0.00,WeatherDisplay:10.37,2013-07-13 09:32:00,
2013-07-13 04:37:00,70.2,62.6,29.06,SW,225,15.0,15.0,77,0.00,CLR,,0.00,WeatherDisplay:10.37,2013-07-13 09:37:00,
2013-07-13 04:42:00,70.3,62.8,29.05,SE,135,16.1,16.1,77,0.00,CLR,,0.00,WeatherDisplay:10.37,2013-07-13 09:42:00,
2013-07-13 04:47:00,70.2,61.5,29.06,South,180,16.1,16.1,74,0.00,CLR,,0.00,WeatherDisplay:10.37,2013-07-13 09:47:00,
2013-07-13 04:52:00,70.2,61.9,29.06,South,180,12.7,12.7,75,0.00,CLR,,0.00,WeatherDisplay:10.37,2013-07-13 09:52:00,
2013-07-13 04:57:00,70.2,62.2,29.07,South,180,13.8,13.8,76,0.00,CLR,,0.00,WeatherDisplay:10.37,2013-07-13 09:57:00,
2013-07-13 05:02:00,70.2,62.2,29.07,South,180,12.7,12.7,76,0.00,CLR,,0.00,WeatherDisplay:10.37,2013-07-13 10:02:00,
2013-07-13 05:07:00,70.2,62.2,29.07,South,180,12.7,12.7,76,0.00,CLR,,0.00,WeatherDisplay:10.37,2013-07-13 10:07:00,
2013-07-13 05:12:00,70.3,61.3,29.08,South,180,9.2,9.2,73,0.00,CLR,,0.00,WeatherDisplay:10.37,2013-07-13 10:12:00,
2013-07-13 05:17:00,70.3,61.3,29.08,South,180,9.2,9.2,73,0.00,CLR,,0.00,WeatherDisplay:10.37,2013-07-13 10:17:00,
2013-07-13 05:22:00,70.2,60.7,29.08,SW,225,9.2,9.2,72,0.00,CLR,,0.00,WeatherDisplay:10.37,2013-07-13 10:22:00,
2013-07-13 05:27:00,70.2,60.7,29.08,South,180,10.4,10.4,72,0.00,CLR,,0.00,WeatherDisplay:10.37,2013-07-13 10:27:00,
2013-07-13 05:32:00,70.0,60.5,29.08,South,180,12.7,12.7,72,0.00,CLR,,0.00,WeatherDisplay:10.37,2013-07-13 10:32:00,
2013-07-13 05:37:00,69.8,60.4,29.09,South,180,10.7,10.7,72,0.00,CLR,,0.00,WeatherDisplay:10.37,2013-07-13 10:37:00,
2013-07-13 05:42:00,69.4,60.0,29.08,South,180,8.1,8.1,72,0.00,CLR,,0.00,WeatherDisplay:10.37,2013-07-13 10:42:00,
2013-07-13 05:47:00,69.4,60.4,29.09,SW,225,5.8,5.8,73,0.00,CLR,,0.00,WeatherDisplay:10.37,2013-07-13 10:47:00,
2013-07-13 05:52:00,69.3,60.2,29.09,SW,225,5.8,5.8,73,0.00,CLR,,0.00,WeatherDisplay:10.37,2013-07-13 10:52:00,
2013-07-13 05:57:00,69.1,60.8,29.09,SW,225,4.6,4.6,75,0.00,CLR,,0.00,WeatherDisplay:10.37,2013-07-13 10:57:00,
2013-07-13 06:02:00,68.9,60.6,29.09,South,180,5.8,5.8,75,0.00,CLR,,0.00,WeatherDisplay:10.37,2013-07-13 11:02:00,
2013-07-13 06:07:00,68.5,61.0,29.08,South,180,8.1,8.1,77,0.01,RA,,0.01,WeatherDisplay:10.37,2013-07-13 11:07:00,
2013-07-13 06:12:00,68.7,61.2,29.09,South,180,5.8,5.8,77,0.01,RA,,0.01,WeatherDisplay:10.37,2013-07-13 11:12:00,
2013-07-13 06:17:00,69.1,61.6,29.08,SE,135,5.8,5.8,77,0.01,,,0.01,WeatherDisplay:10.37,2013-07-13 11:17:00,
2013-07-13 06:22:00,69.6,62.1,29.09,South,180,3.5,3.5,77,0.01,CLR,,0.01,WeatherDisplay:10.37,2013-07-13 11:22:00,
2013-07-13 06:27:00,70.3,62.4,29.10,SW,225,3.5,3.5,76,0.01,CLR,,0.01,WeatherDisplay:10.37,2013-07-13 11:27:00,
2013-07-13 06:32:00,70.2,61.5,29.09,SE,135,5.8,5.8,74,0.02,RA,,0.02,WeatherDisplay:10.37,2013-07-13 11:32:00,
2013-07-13 06:37:00,69.4,61.9,29.10,South,180,8.1,8.1,77,0.02,RA,,0.02,WeatherDisplay:10.37,2013-07-13 11:37:00,
2013-07-13 06:42:00,69.1,61.6,29.09,South,180,9.2,9.2,77,0.02,,,0.02,WeatherDisplay:10.37,2013-07-13 11:42:00,
2013-07-13 06:47:00,69.1,62.3,29.10,South,180,9.2,9.2,79,0.04,RA,,0.04,WeatherDisplay:10.37,2013-07-13 11:47:00,
2013-07-13 06:52:00,68.9,63.2,29.10,South,180,9.2,9.2,82,0.04,RA,,0.04,WeatherDisplay:10.37,2013-07-13 11:52:00,
2013-07-13 06:57:00,68.9,62.5,29.10,South,180,10.4,10.4,80,0.04,,,0.04,WeatherDisplay:10.37,2013-07-13 11:57:00,
2013-07-13 07:02:00,68.5,61.8,29.11,South,180,10.4,10.4,79,0.05,RA,,0.05,WeatherDisplay:10.37,2013-07-13 12:02:00,
2013-07-13 07:07:00,68.5,62.5,29.11,SW,225,10.4,10.4,81,0.04,RA,,0.05,WeatherDisplay:10.37,2013-07-13 12:07:00,
2013-07-13 07:12:00,68.7,61.6,29.11,South,180,10.4,10.4,78,0.04,CLR,,0.05,WeatherDisplay:10.37,2013-07-13 12:12:00,
2013-07-13 07:17:00,68.7,61.6,29.12,South,180,10.4,10.4,78,0.05,RA,,0.06,WeatherDisplay:10.37,2013-07-13 12:17:00,
2013-07-13 07:22:00,68.7,62.3,29.11,South,180,11.5,11.5,80,0.05,RA,,0.06,WeatherDisplay:10.37,2013-07-13 12:22:00,
2013-07-13 07:27:00,68.9,62.1,29.11,South,180,10.4,10.4,79,0.05,CLR,,0.06,WeatherDisplay:10.37,2013-07-13 12:27:00,
2013-07-13 07:32:00,68.9,62.8,29.11,South,180,9.2,9.2,81,0.04,CLR,,0.06,WeatherDisplay:10.37,2013-07-13 12:32:00,
2013-07-13 07:37:00,68.9,62.8,29.12,South,180,10.4,10.4,81,0.04,CLR,,0.06,WeatherDisplay:10.37,2013-07-13 12:37:00,
2013-07-13 07:42:00,68.9,62.1,29.11,South,180,11.5,11.5,79,0.04,CLR,,0.06,WeatherDisplay:10.37,2013-07-13 12:42:00,
2013-07-13 07:47:00,69.1,63.0,29.11,South,180,10.4,10.4,81,0.02,CLR,,0.06,WeatherDisplay:10.37,2013-07-13 12:47:00,
2013-07-13 07:52:00,69.3,63.2,29.12,South,180,5.8,5.8,81,0.02,CLR,,0.06,WeatherDisplay:10.37,2013-07-13 12:52:00,
2013-07-13 07:57:00,68.5,63.2,29.12,NE,45,5.8,5.8,83,0.02,CLR,,0.06,WeatherDisplay:10.37,2013-07-13 12:57:00,
2013-07-13 08:02:00,67.5,62.8,29.12,East,90,4.6,4.6,85,0.01,CLR,,0.06,WeatherDisplay:10.37,2013-07-13 13:02:00,
2013-07-13 08:07:00,67.5,63.1,29.11,SW,225,4.6,4.6,86,0.01,CLR,,0.06,WeatherDisplay:10.37,2013-07-13 13:07:00,
2013-07-13 08:12:00,67.6,63.0,29.11,SE,135,5.8,5.8,85,0.01,CLR,,0.06,WeatherDisplay:10.37,2013-07-13 13:12:00,
2013-07-13 08:17:00,68.0,63.0,29.11,SE,135,9.2,9.2,84,0.00,CLR,,0.06,WeatherDisplay:10.37,2013-07-13 13:17:00,
2013-07-13 08:22:00,68.2,63.5,29.11,SSE,158,11.5,11.5,85,0.00,CLR,,0.06,WeatherDisplay:10.37,2013-07-13 13:22:00,
2013-07-13 08:27:00,68.0,63.7,29.11,SE,135,10.4,10.4,86,0.00,CLR,,0.06,WeatherDisplay:10.37,2013-07-13 13:27:00,
2013-07-13 08:32:00,68.4,63.7,29.11,South,180,12.7,12.7,85,0.00,CLR,,0.06,WeatherDisplay:10.37,2013-07-13 13:32:00,
2013-07-13 08:37:00,68.4,63.0,29.11,South,180,12.7,12.7,83,0.00,CLR,,0.06,WeatherDisplay:10.37,2013-07-13 13:37:00,
2013-07-13 08:42:00,68.7,64.0,29.11,SSE,158,12.7,12.7,85,0.00,CLR,,0.06,WeatherDisplay:10.37,2013-07-13 13:42:00,
2013-07-13 08:47:00,68.7,63.7,29.11,South,180,13.8,13.8,84,0.00,CLR,,0.06,WeatherDisplay:10.37,2013-07-13 13:47:00,
2013-07-13 08:52:00,68.9,63.9,29.10,South,180,15.0,15.0,84,0.00,CLR,,0.06,WeatherDisplay:10.37,2013-07-13 13:52:00,
2013-07-13 08:57:00,69.1,63.4,29.10,South,180,15.0,15.0,82,0.00,CLR,,0.06,WeatherDisplay:10.37,2013-07-13 13:57:00,
2013-07-13 09:02:00,69.3,63.5,29.10,South,180,18.4,18.4,82,0.00,CLR,,0.06,WeatherDisplay:10.37,2013-07-13 14:02:00,
2013-07-13 09:07:00,69.6,64.6,29.10,South,180,18.4,18.4,84,0.00,CLR,,0.06,WeatherDisplay:10.37,2013-07-13 14:07:00,
2013-07-13 09:12:00,69.6,63.9,29.10,South,180,19.6,19.6,82,0.00,CLR,,0.06,WeatherDisplay:10.37,2013-07-13 14:12:00,
2013-07-13 09:17:00,69.8,63.7,29.10,South,180,17.3,17.3,81,0.00,CLR,,0.06,WeatherDisplay:10.37,2013-07-13 14:17:00,
2013-07-13 09:22:00,70.2,63.7,29.10,South,180,17.3,17.3,80,0.00,CLR,,0.06,WeatherDisplay:10.37,2013-07-13 14:22:00,
2013-07-13 09:27:00,69.8,62.6,29.09,South,180,17.3,17.3,78,0.00,CLR,,0.06,WeatherDisplay:10.37,2013-07-13 14:27:00,
2013-07-13 09:32:00,70.2,63.0,29.10,South,180,19.6,19.6,78,0.00,CLR,,0.06,WeatherDisplay:10.37,2013-07-13 14:32:00,
2013-07-13 09:37:00,70.3,63.5,29.09,South,180,18.4,18.4,79,0.00,CLR,,0.06,WeatherDisplay:10.37,2013-07-13 14:37:00,
2013-07-13 09:42:00,70.5,63.0,29.10,South,180,13.8,13.8,77,0.00,CLR,,0.06,WeatherDisplay:10.37,2013-07-13 14:42:00,
2013-07-13 09:47:00,70.9,63.3,29.11,SW,225,13.8,13.8,77,0.00,CLR,,0.06,WeatherDisplay:10.37,2013-07-13 14:47:00,
2013-07-13 09:52:00,71.1,62.4,29.10,South,180,13.8,13.8,74,0.00,CLR,,0.06,WeatherDisplay:10.37,2013-07-13 14:52:00,
2013-07-13 09:57:00,71.2,62.1,29.10,South,180,12.7,12.7,73,0.00,CLR,,0.06,WeatherDisplay:10.37,2013-07-13 14:57:00,
2013-07-13 10:02:00,71.2,62.5,29.10,South,180,12.7,12.7,74,0.00,CLR,,0.06,WeatherDisplay:10.37,2013-07-13 15:02:00,
2013-07-13 10:07:00,71.2,62.5,29.10,SW,225,15.0,15.0,74,0.00,CLR,,0.06,WeatherDisplay:10.37,2013-07-13 15:07:00,
2013-07-13 10:12:00,71.6,62.9,29.10,SW,225,13.8,13.8,74,0.00,CLR,,0.06,WeatherDisplay:10.37,2013-07-13 15:12:00,
2013-07-13 10:17:00,71.8,62.7,29.10,South,180,15.0,15.0,73,0.00,CLR,,0.06,WeatherDisplay:10.37,2013-07-13 15:17:00,
2013-07-13 10:22:00,72.0,62.8,29.10,South,180,13.8,13.8,73,0.00,CLR,,0.06,WeatherDisplay:10.37,2013-07-13 15:22:00,
2013-07-13 10:27:00,72.7,63.1,29.10,South,180,11.5,11.5,72,0.00,CLR,,0.06,WeatherDisplay:10.37,2013-07-13 15:27:00,
2013-07-13 10:32:00,72.5,61.3,29.10,South,180,16.1,16.1,68,0.00,CLR,,0.06,WeatherDisplay:10.37,2013-07-13 15:32:00,
2013-07-13 10:37:00,72.7,62.7,29.10,South,180,15.0,15.0,71,0.00,CLR,,0.06,WeatherDisplay:10.37,2013-07-13 15:37:00,
2013-07-13 10:42:00,73.2,62.4,29.11,South,180,15.0,15.0,69,0.00,CLR,,0.06,WeatherDisplay:10.37,2013-07-13 15:42:00,
2013-07-13 10:47:00,73.6,62.8,29.10,South,180,17.3,17.3,69,0.00,CLR,,0.06,WeatherDisplay:10.37,2013-07-13 15:47:00,
2013-07-13 10:52:00,73.8,63.0,29.11,SW,225,17.3,17.3,69,0.00,CLR,,0.06,WeatherDisplay:10.37,2013-07-13 15:52:00,
2013-07-13 10:57:00,73.0,61.4,29.11,SW,225,19.6,19.6,67,0.00,CLR,,0.06,WeatherDisplay:10.37,2013-07-13 15:57:00,
2013-07-13 11:02:00,72.7,61.1,29.11,SW,225,24.2,24.2,67,0.00,CLR,,0.06,WeatherDisplay:10.37,2013-07-13 16:02:00,
2013-07-13 11:07:00,73.0,61.4,29.12,South,180,19.6,19.6,67,0.00,CLR,,0.06,WeatherDisplay:10.37,2013-07-13 16:07:00,
2013-07-13 11:12:00,73.4,61.3,29.11,South,180,17.3,17.3,66,0.00,CLR,,0.06,WeatherDisplay:10.37,2013-07-13 16:12:00,
2013-07-13 11:17:00,73.8,61.3,29.11,SW,225,17.3,17.3,65,0.00,CLR,,0.06,WeatherDisplay:10.37,2013-07-13 16:17:00,
2013-07-13 11:22:00,74.1,61.6,29.12,SW,225,19.0,19.0,65,0.00,CLR,,0.06,WeatherDisplay:10.37,2013-07-13 16:22:00,
2013-07-13 11:27:00,73.9,61.0,29.12,South,180,20.7,20.7,64,0.00,CLR,,0.06,WeatherDisplay:10.37,2013-07-13 16:27:00,
2013-07-13 11:32:00,74.1,62.0,29.12,SW,225,17.3,17.3,66,0.00,CLR,,0.06,WeatherDisplay:10.37,2013-07-13 16:32:00,
2013-07-13 11:37:00,73.6,61.1,29.12,SW,225,24.2,24.2,65,0.00,CLR,,0.06,WeatherDisplay:10.37,2013-07-13 16:37:00,
2013-07-13 11:42:00,73.2,61.2,29.12,SW,225,20.7,20.7,66,0.00,CLR,,0.06,WeatherDisplay:10.37,2013-07-13 16:42:00,
2013-07-13 11:47:00,73.6,61.1,29.12,SW,225,23.0,23.0,65,0.00,CLR,,0.06,WeatherDisplay:10.37,2013-07-13 16:47:00,
2013-07-13 11:52:00,73.8,61.7,29.12,SW,225,16.1,16.1,66,0.00,CLR,,0.06,WeatherDisplay:10.37,2013-07-13 16:52:00,
2013-07-13 11:57:00,74.1,61.6,29.12,SW,225,12.7,12.7,65,0.00,CLR,,0.06,WeatherDisplay:10.37,2013-07-13 16:57:00,
2013-07-13 12:02:00,74.3,61.8,29.12,South,180,16.1,16.1,65,0.00,CLR,,0.06,WeatherDisplay:10.37,2013-07-13 17:02:00,
2013-07-13 12:07:00,74.5,62.8,29.12,South,180,17.3,17.3,67,0.00,CLR,,0.06,WeatherDisplay:10.37,2013-07-13 17:07:00,
2013-07-13 12:12:00,74.1,62.0,29.12,South,180,17.3,17.3,66,0.00,CLR,,0.06,WeatherDisplay:10.37,2013-07-13 17:12:00,
2013-07-13 12:17:00,74.1,61.6,29.12,South,180,16.1,16.1,65,0.00,CLR,,0.06,WeatherDisplay:10.37,2013-07-13 17:17:00,
2013-07-13 12:22:00,74.8,62.3,29.12,South,180,12.7,12.7,65,0.00,CLR,,0.06,WeatherDisplay:10.37,2013-07-13 17:22:00,
2013-07-13 12:27:00,75.0,62.0,29.12,South,180,12.7,12.7,64,0.00,CLR,,0.06,WeatherDisplay:10.37,2013-07-13 17:27:00,
2013-07-13 12:32:00,75.0,61.6,29.12,South,180,15.0,15.0,63,0.00,CLR,,0.06,WeatherDisplay:10.37,2013-07-13 17:32:00,
2013-07-13 12:37:00,75.2,62.2,29.12,South,180,16.1,16.1,64,0.00,CLR,,0.06,WeatherDisplay:10.37,2013-07-13 17:37:00,
2013-07-13 12:42:00,75.4,62.8,29.12,South,180,15.0,15.0,65,0.00,CLR,,0.06,WeatherDisplay:10.37,2013-07-13 17:42:00,
2013-07-13 12:47:00,75.6,62.5,29.12,South,180,12.7,12.7,64,0.00,CLR,,0.06,WeatherDisplay:10.37,2013-07-13 17:47:00,
2013-07-13 12:52:00,76.1,63.0,29.12,South,180,15.0,15.0,64,0.00,CLR,,0.06,WeatherDisplay:10.37,2013-07-13 17:52:00,
2013-07-13 12:57:00,75.9,62.4,29.12,South,180,13.8,13.8,63,0.00,CLR,,0.06,WeatherDisplay:10.37,2013-07-13 17:57:00,
2013-07-13 13:02:00,75.9,62.9,29.12,SW,225,16.1,16.1,64,0.00,CLR,,0.06,WeatherDisplay:10.37,2013-07-13 18:02:00,
2013-07-13 13:07:00,76.5,62.9,29.12,SW,225,19.6,19.6,63,0.00,CLR,,0.06,WeatherDisplay:10.37,2013-07-13 18:07:00,
2013-07-13 13:12:00,76.3,62.8,29.12,South,180,20.7,20.7,63,0.00,CLR,,0.06,WeatherDisplay:10.37,2013-07-13 18:12:00,
2013-07-13 13:17:00,76.8,63.3,29.12,South,180,20.7,20.7,63,0.00,CLR,,0.06,WeatherDisplay:10.37,2013-07-13 18:17:00,
2013-07-13 13:22:00,77.2,62.2,29.12,South,180,15.0,15.0,60,0.00,CLR,,0.06,WeatherDisplay:10.37,2013-07-13 18:22:00,
2013-07-13 13:27:00,77.2,62.7,29.12,South,180,18.4,18.4,61,0.00,CLR,,0.06,WeatherDisplay:10.37,2013-07-13 18:27:00,
2013-07-13 13:32:00,77.7,63.7,29.12,South,180,15.0,15.0,62,0.00,CLR,,0.06,WeatherDisplay:10.37,2013-07-13 18:32:00,
2013-07-13 13:37:00,78.6,63.1,29.12,South,180,11.5,11.5,59,0.00,CLR,,0.06,WeatherDisplay:10.37,2013-07-13 18:37:00,
2013-07-13 13:42:00,78.8,63.3,29.12,South,180,17.3,17.3,59,0.00,CLR,,0.06,WeatherDisplay:10.37,2013-07-13 18:42:00,
2013-07-13 13:47:00,78.3,63.7,29.12,South,180,18.4,18.4,61,0.00,CLR,,0.06,WeatherDisplay:10.37,2013-07-13 18:47:00,
2013-07-13 13:52:00,78.1,62.6,29.13,South,180,19.6,19.6,59,0.00,CLR,,0.06,WeatherDisplay:10.37,2013-07-13 18:52:00,
2013-07-13 13:57:00,78.8,62.3,29.13,South,180,18.4,18.4,57,0.00,CLR,,0.06,WeatherDisplay:10.37,2013-07-13 18:57:00,
2013-07-13 14:02:00,78.6,62.6,29.12,SW,225,19.6,19.6,58,0.00,CLR,,0.06,WeatherDisplay:10.37,2013-07-13 19:02:00,
2013-07-13 14:07:00,78.6,62.1,29.13,South,180,20.7,20.7,57,0.00,CLR,,0.06,WeatherDisplay:10.37,2013-07-13 19:07:00,
2013-07-13 14:12:00,78.8,63.7,29.13,SW,225,19.6,19.6,60,0.00,CLR,,0.06,WeatherDisplay:10.37,2013-07-13 19:12:00,
2013-07-13 14:17:00,79.0,62.9,29.12,SW,225,19.6,19.6,58,0.00,CLR,,0.06,WeatherDisplay:10.37,2013-07-13 19:17:00,
2013-07-13 14:22:00,78.8,63.3,29.12,South,180,20.7,20.7,59,0.00,CLR,,0.06,WeatherDisplay:10.37,2013-07-13 19:22:00,
2013-07-13 14:27:00,78.8,62.8,29.12,South,180,19.6,19.6,58,0.00,CLR,,0.06,WeatherDisplay:10.37,2013-07-13 19:27:00,
2013-07-13 14:32:00,79.0,62.9,29.13,South,180,17.3,17.3,58,0.00,CLR,,0.06,WeatherDisplay:10.37,2013-07-13 19:32:00,
2013-07-13 14:37:00,78.6,62.1,29.13,South,180,22.2,22.2,57,0.00,CLR,,0.06,WeatherDisplay:10.37,2013-07-13 19:37:00,
2013-07-13 14:42:00,78.8,62.3,29.12,South,180,18.4,18.4,57,0.00,CLR,,0.06,WeatherDisplay:10.37,2013-07-13 19:42:00,
2013-07-13 14:47:00,79.3,61.8,29.13,South,180,21.9,21.9,55,0.00,CLR,,0.06,WeatherDisplay:10.37,2013-07-13 19:47:00,
2013-07-13 14:52:00,79.3,61.2,29.13,South,180,20.7,20.7,54,0.00,CLR,,0.06,WeatherDisplay:10.37,2013-07-13 19:52:00,
2013-07-13 14:57:00,79.9,62.3,29.12,South,180,15.0,15.0,55,0.00,CLR,,0.06,WeatherDisplay:10.37,2013-07-13 19:57:00,
2013-07-13 15:02:00,80.1,61.9,29.12,South,180,16.8,16.8,54,0.00,CLR,,0.06,WeatherDisplay:10.37,2013-07-13 20:02:00,
2013-07-13 15:07:00,78.8,63.3,29.12,South,180,19.6,19.6,59,0.00,CLR,,0.06,WeatherDisplay:10.37,2013-07-13 20:07:00,
2013-07-13 15:12:00,78.6,61.6,29.12,South,180,19.6,19.6,56,0.00,CLR,,0.06,WeatherDisplay:10.37,2013-07-13 20:12:00,
2013-07-13 15:17:00,79.0,62.9,29.12,South,180,15.0,15.0,58,0.00,CLR,,0.06,WeatherDisplay:10.37,2013-07-13 20:17:00,
2013-07-13 15:22:00,79.0,62.9,29.12,South,180,17.3,17.3,58,0.00,CLR,,0.06,WeatherDisplay:10.37,2013-07-13 20:22:00,
2013-07-13 15:27:00,79.5,62.4,29.12,NNE,22,12.7,12.7,56,0.00,CLR,,0.06,WeatherDisplay:10.37,2013-07-13 20:27:00,
2013-07-13 15:32:00,79.5,63.4,29.11,South,180,13.8,13.8,58,0.00,CLR,,0.06,WeatherDisplay:10.37,2013-07-13 20:32:00,
2013-07-13 15:37:00,79.9,62.3,29.11,SE,135,15.0,15.0,55,0.00,CLR,,0.06,WeatherDisplay:10.37,2013-07-13 20:37:00,
2013-07-13 15:42:00,80.1,61.4,29.11,South,180,12.7,12.7,53,0.00,CLR,,0.06,WeatherDisplay:10.37,2013-07-13 20:42:00,
2013-07-13 15:47:00,79.7,61.6,29.11,South,180,15.0,15.0,54,0.00,CLR,,0.06,WeatherDisplay:10.37,2013-07-13 20:47:00,
2013-07-13 15:52:00,79.5,62.9,29.11,South,180,15.0,15.0,57,0.00,CLR,,0.06,WeatherDisplay:10.37,2013-07-13 20:52:00,
2013-07-13 15:57:00,79.5,61.4,29.11,South,180,13.8,13.8,54,0.00,CLR,,0.06,WeatherDisplay:10.37,2013-07-13 20:57:00,
2013-07-13 16:02:00,79.3,61.2,29.11,NNE,22,13.8,13.8,54,0.00,CLR,,0.06,WeatherDisplay:10.37,2013-07-13 21:02:00,
2013-07-13 16:07:00,79.5,61.9,29.11,SW,225,10.4,10.4,55,0.00,CLR,,0.06,WeatherDisplay:10.37,2013-07-13 21:07:00,
2013-07-13 16:12:00,79.3,61.8,29.11,South,180,11.5,11.5,55,0.00,CLR,,0.06,WeatherDisplay:10.37,2013-07-13 21:12:00,
2013-07-13 16:17:00,79.5,61.9,29.11,South,180,10.4,10.4,55,0.00,CLR,,0.06,WeatherDisplay:10.37,2013-07-13 21:17:00,
2013-07-13 16:22:00,79.5,61.9,29.11,SW,225,11.5,11.5,55,0.00,CLR,,0.06,WeatherDisplay:10.37,2013-07-13 21:22:00,
2013-07-13 16:27:00,79.7,63.1,29.11,SW,225,10.4,10.4,57,0.00,CLR,,0.06,WeatherDisplay:10.37,2013-07-13 21:27:00,
2013-07-13 16:32:00,79.3,63.8,29.11,SE,135,12.7,12.7,59,0.00,CLR,,0.06,WeatherDisplay:10.37,2013-07-13 21:32:00,
2013-07-13 16:37:00,79.3,63.3,29.11,South,180,12.7,12.7,58,0.00,CLR,,0.06,WeatherDisplay:10.37,2013-07-13 21:37:00,
2013-07-13 16:42:00,79.3,63.3,29.11,South,180,12.7,12.7,58,0.00,CLR,,0.06,WeatherDisplay:10.37,2013-07-13 21:42:00,
2013-07-13 16:47:00,79.5,64.9,29.10,South,180,12.7,12.7,61,0.00,CLR,,0.06,WeatherDisplay:10.37,2013-07-13 21:47:00,
2013-07-13 16:52:00,79.5,65.4,29.10,South,180,15.0,15.0,62,0.00,CLR,,0.06,WeatherDisplay:10.37,2013-07-13 21:52:00,
2013-07-13 16:57:00,79.3,64.2,29.10,SSE,158,15.2,15.2,60,0.00,CLR,,0.06,WeatherDisplay:10.37,2013-07-13 21:57:00,
2013-07-13 17:02:00,79.5,65.8,29.09,South,180,15.0,15.0,63,0.00,CLR,,0.06,WeatherDisplay:10.37,2013-07-13 22:02:00,
2013-07-13 17:07:00,79.3,65.2,29.10,South,180,17.3,17.3,62,0.00,CLR,,0.06,WeatherDisplay:10.37,2013-07-13 22:07:00,
2013-07-13 17:12:00,79.3,63.3,29.10,SW,225,17.3,17.3,58,0.00,CLR,,0.06,WeatherDisplay:10.37,2013-07-13 22:12:00,
2013-07-13 17:17:00,79.7,62.6,29.10,SW,225,15.0,15.0,56,0.00,CLR,,0.06,WeatherDisplay:10.37,2013-07-13 22:17:00,
2013-07-13 17:22:00,80.2,63.6,29.11,SW,225,12.7,12.7,57,0.00,CLR,,0.06,WeatherDisplay:10.37,2013-07-13 22:22:00,
2013-07-13 17:27:00,80.6,62.9,29.11,South,180,12.7,12.7,55,0.00,CLR,,0.06,WeatherDisplay:10.37,2013-07-13 22:27:00,
2013-07-13 17:32:00,80.4,62.2,29.10,South,180,12.7,12.7,54,0.00,CLR,,0.06,WeatherDisplay:10.37,2013-07-13 22:32:00,
2013-07-13 17:37:00,80.1,63.5,29.10,South,180,11.5,11.5,57,0.00,CLR,,0.06,WeatherDisplay:10.37,2013-07-13 22:37:00,
2013-07-13 17:42:00,79.9,63.3,29.10,South,180,12.7,12.7,57,0.00,CLR,,0.06,WeatherDisplay:10.37,2013-07-13 22:42:00,
2013-07-13 17:47:00,79.3,62.8,29.10,South,180,11.5,11.5,57,0.00,CLR,,0.06,WeatherDisplay:10.37,2013-07-13 22:47:00,
2013-07-13 17:52:00,79.2,64.1,29.10,South,180,12.7,12.7,60,0.00,CLR,,0.06,WeatherDisplay:10.37,2013-07-13 22:52:00,
2013-07-13 17:57:00,79.2,62.1,29.11,South,180,13.8,13.8,56,0.00,CLR,,0.06,WeatherDisplay:10.37,2013-07-13 22:57:00,
2013-07-13 18:02:00,79.0,61.9,29.11,South,180,10.4,10.4,56,0.00,CLR,,0.06,WeatherDisplay:10.37,2013-07-13 23:02:00,
2013-07-13 18:07:00,79.0,61.9,29.11,South,180,10.4,10.4,56,0.00,CLR,,0.06,WeatherDisplay:10.37,2013-07-13 23:07:00,
2013-07-13 18:12:00,79.0,62.4,29.11,South,180,10.4,10.4,57,0.00,CLR,,0.06,WeatherDisplay:10.37,2013-07-13 23:12:00,
2013-07-13 18:17:00,79.0,62.9,29.11,South,180,12.7,12.7,58,0.00,CLR,,0.06,WeatherDisplay:10.37,2013-07-13 23:17:00,
2013-07-13 18:22:00,78.8,62.8,29.10,South,180,11.5,11.5,58,0.00,CLR,,0.06,WeatherDisplay:10.37,2013-07-13 23:22:00,
2013-07-13 18:27:00,79.0,63.4,29.11,SW,225,9.2,9.2,59,0.00,CLR,,0.06,WeatherDisplay:10.37,2013-07-13 23:27:00,
2013-07-13 18:32:00,79.0,62.4,29.11,South,180,10.4,10.4,57,0.00,CLR,,0.06,WeatherDisplay:10.37,2013-07-13 23:32:00,
2013-07-13 18:37:00,79.0,62.9,29.11,SW,225,8.1,8.1,58,0.00,CLR,,0.06,WeatherDisplay:10.37,2013-07-13 23:37:00,
2013-07-13 18:42:00,78.8,62.3,29.11,SW,225,8.1,8.1,57,0.00,CLR,,0.06,WeatherDisplay:10.37,2013-07-13 23:42:00,
2013-07-13 18:47:00,78.4,62.4,29.11,SW,225,10.4,10.4,58,0.00,CLR,,0.06,WeatherDisplay:10.37,2013-07-13 23:47:00,
2013-07-13 18:52:00,78.3,61.8,29.11,South,180,12.7,12.7,57,0.00,CLR,,0.06,WeatherDisplay:10.37,2013-07-13 23:52:00,
2013-07-13 18:57:00,78.1,61.6,29.11,South,180,10.4,10.4,57,0.00,CLR,,0.06,WeatherDisplay:10.37,2013-07-13 23:57:00,
2013-07-13 19:02:00,78.1,62.1,29.11,SW,225,10.4,10.4,58,0.00,CLR,,0.06,WeatherDisplay:10.37,2013-07-14 00:02:00,
2013-07-13 19:07:00,78.1,62.1,29.11,South,180,8.1,8.1,58,0.00,CLR,,0.06,WeatherDisplay:10.37,2013-07-14 00:07:00,
2013-07-13 19:12:00,78.1,62.6,29.11,SSE,158,9.2,9.2,59,0.00,CLR,,0.06,WeatherDisplay:10.37,2013-07-14 00:12:00,
2013-07-13 19:17:00,78.1,62.6,29.11,SW,225,8.1,8.1,59,0.00,CLR,,0.06,WeatherDisplay:10.37,2013-07-14 00:17:00,
2013-07-13 19:22:00,78.1,63.5,29.11,South,180,10.4,10.4,61,0.00,CLR,,0.06,WeatherDisplay:10.37,2013-07-14 00:22:00,
2013-07-13 19:27:00,78.1,63.5,29.11,SW,225,10.4,10.4,61,0.00,CLR,,0.06,WeatherDisplay:10.37,2013-07-14 00:27:00,
2013-07-13 19:32:00,78.1,64.0,29.11,South,180,10.4,10.4,62,0.00,CLR,,0.06,WeatherDisplay:10.37,2013-07-14 00:32:00,
2013-07-13 19:37:00,78.1,63.5,29.11,South,180,10.4,10.4,61,0.00,CLR,,0.06,WeatherDisplay:10.37,2013-07-14 00:37:00,
2013-07-13 19:42:00,78.1,64.5,29.11,SW,225,8.1,8.1,63,0.00,CLR,,0.06,WeatherDisplay:10.37,2013-07-14 00:42:00,
2013-07-13 19:47:00,77.7,63.7,29.11,South,180,8.3,8.3,62,0.00,CLR,,0.06,WeatherDisplay:10.37,2013-07-14 00:47:00,
2013-07-13 19:52:00,77.5,63.9,29.11,South,180,8.1,8.1,63,0.00,CLR,,0.06,WeatherDisplay:10.37,2013-07-14 00:52:00,
2013-07-13 19:57:00,77.5,63.9,29.10,South,180,10.4,10.4,63,0.00,CLR,,0.06,WeatherDisplay:10.37,2013-07-14 00:57:00,
2013-07-13 20:02:00,77.5,64.4,29.10,South,180,8.1,8.1,64,0.00,CLR,,0.06,WeatherDisplay:10.37,2013-07-14 01:02:00,
2013-07-13 20:07:00,77.4,63.8,29.11,South,180,10.4,10.4,63,0.00,CLR,,0.06,WeatherDisplay:10.37,2013-07-14 01:07:00,
2013-07-13 20:12:00,77.4,64.2,29.11,South,180,9.2,9.2,64,0.00,CLR,,0.06,WeatherDisplay:10.37,2013-07-14 01:12:00,
2013-07-13 20:17:00,77.2,63.6,29.12,SW,225,5.8,6.0,63,0.00,CLR,,0.06,WeatherDisplay:10.37,2013-07-14 01:17:00,
2013-07-13 20:22:00,77.0,64.3,29.11,South,180,6.0,6.0,65,0.00,CLR,,0.06,WeatherDisplay:10.37,2013-07-14 01:22:00,
2013-07-13 20:27:00,77.0,64.3,29.11,SW,225,6.9,6.9,65,0.00,CLR,,0.06,WeatherDisplay:10.37,2013-07-14 01:27:00,
2013-07-13 20:32:00,77.0,64.8,29.12,South,180,8.1,8.1,66,0.00,CLR,,0.06,WeatherDisplay:10.37,2013-07-14 01:32:00,
2013-07-13 20:37:00,76.8,65.0,29.11,SW,225,8.1,8.1,67,0.00,CLR,,0.06,WeatherDisplay:10.37,2013-07-14 01:37:00,
2013-07-13 20:42:00,76.6,64.4,29.11,South,180,8.1,8.1,66,0.00,CLR,,0.06,WeatherDisplay:10.37,2013-07-14 01:42:00,
2013-07-13 20:47:00,76.6,64.4,29.11,SW,225,8.1,8.1,66,0.00,CLR,,0.06,WeatherDisplay:10.37,2013-07-14 01:47:00,
2013-07-13 20:52:00,76.6,65.3,29.12,South,180,9.2,9.2,68,0.00,CLR,,0.06,WeatherDisplay:10.37,2013-07-14 01:52:00,
2013-07-13 20:57:00,76.5,65.1,29.12,South,180,9.2,9.2,68,0.00,CLR,,0.06,WeatherDisplay:10.37,2013-07-14 01:57:00,
2013-07-13 21:02:00,76.5,65.5,29.12,South,180,9.2,9.2,69,0.00,CLR,,0.06,WeatherDisplay:10.37,2013-07-14 02:02:00,
2013-07-13 21:07:00,76.5,64.7,29.12,SW,225,12.7,12.7,67,0.00,CLR,,0.06,WeatherDisplay:10.37,2013-07-14 02:07:00,
2013-07-13 21:12:00,76.6,65.3,29.12,South,180,16.1,16.1,68,0.00,CLR,,0.06,WeatherDisplay:10.37,2013-07-14 02:12:00,
2013-07-13 21:17:00,76.6,64.9,29.12,South,180,13.8,13.8,67,0.00,CLR,,0.06,WeatherDisplay:10.37,2013-07-14 02:17:00,
2013-07-13 21:18:00,76.5,65.1,29.12,SSE,158,15.0,15.0,68,0.00,CLR,,0.06,WeatherDisplay:10.37,2013-07-14 02:18:00,
2013-07-13 21:23:00,76.5,65.5,29.12,South,180,13.8,13.8,69,0.00,CLR,,0.06,WeatherDisplay:10.37,2013-07-14 02:23:00,
2013-07-13 21:28:00,76.3,65.8,29.12,South,180,13.8,13.8,70,0.00,CLR,,0.06,WeatherDisplay:10.37,2013-07-14 02:28:00,
2013-07-13 21:33:00,76.3,65.8,29.12,South,180,11.5,11.5,70,0.00,CLR,,0.06,WeatherDisplay:10.37,2013-07-14 02:33:00,
2013-07-13 21:38:00,76.1,66.4,29.12,South,180,10.4,10.4,72,0.00,CLR,,0.06,WeatherDisplay:10.37,2013-07-14 02:38:00,
2013-07-13 21:43:00,75.9,66.2,29.12,South,180,10.4,10.4,72,0.00,CLR,,0.06,WeatherDisplay:10.37,2013-07-14 02:43:00,
2013-07-13 21:48:00,75.9,66.2,29.12,South,180,10.4,10.4,72,0.00,CLR,,0.06,WeatherDisplay:10.37,2013-07-14 02:48:00,
2013-07-13 21:53:00,75.7,66.1,29.12,South,180,9.2,9.2,72,0.00,CLR,,0.06,WeatherDisplay:10.37,2013-07-14 02:53:00,
2013-07-13 21:58:00,75.6,64.7,29.13,South,180,11.5,11.5,69,0.00,CLR,,0.06,WeatherDisplay:10.37,2013-07-14 02:58:00,
2013-07-13 22:03:00,75.6,65.5,29.12,South,180,11.5,11.5,71,0.00,CLR,,0.06,WeatherDisplay:10.37,2013-07-14 03:03:00,
2013-07-13 22:08:00,75.6,65.5,29.12,South,180,12.7,12.7,71,0.00,CLR,,0.06,WeatherDisplay:10.37,2013-07-14 03:08:00,
2013-07-13 22:13:00,75.4,64.9,29.12,South,180,15.0,15.0,70,0.00,CLR,,0.06,WeatherDisplay:10.37,2013-07-14 03:13:00,
2013-07-13 22:18:00,75.4,64.9,29.12,South,180,15.0,15.0,70,0.00,CLR,,0.06,WeatherDisplay:10.37,2013-07-14 03:18:00,
2013-07-13 22:23:00,75.4,64.5,29.12,South,180,15.0,15.0,69,0.00,CLR,,0.06,WeatherDisplay:10.37,2013-07-14 03:23:00,
2013-07-13 22:28:00,75.4,64.9,29.12,South,180,15.0,15.0,70,0.00,CLR,,0.06,WeatherDisplay:10.37,2013-07-14 03:28:00,
2013-07-13 22:33:00,75.4,64.9,29.12,South,180,12.7,12.7,70,0.00,CLR,,0.06,WeatherDisplay:10.37,2013-07-14 03:33:00,
2013-07-13 22:38:00,75.4,64.1,29.12,South,180,15.0,15.0,68,0.00,CLR,,0.06,WeatherDisplay:10.37,2013-07-14 03:38:00,
2013-07-13 22:43:00,75.4,63.7,29.12,South,180,12.7,12.7,67,0.00,CLR,,0.06,WeatherDisplay:10.37,2013-07-14 03:43:00,
2013-07-13 22:48:00,75.4,64.5,29.13,South,180,12.7,12.7,69,0.00,CLR,,0.06,WeatherDisplay:10.37,2013-07-14 03:48:00,
2013-07-13 22:53:00,75.4,64.1,29.12,West,270,11.5,11.5,68,0.00,CLR,,0.06,WeatherDisplay:10.37,2013-07-14 03:53:00,
2013-07-13 22:58:00,75.4,64.1,29.13,South,180,12.7,12.7,68,0.00,CLR,,0.06,WeatherDisplay:10.37,2013-07-14 03:58:00,
2013-07-13 23:01:00,75.4,64.1,29.13,South,180,10.4,10.4,68,0.00,CLR,,0.06,WeatherDisplay:10.37,2013-07-14 04:01:00,
2013-07-13 23:06:00,75.2,63.5,29.13,South,180,12.7,12.7,67,0.00,CLR,,0.06,WeatherDisplay:10.37,2013-07-14 04:06:00,
2013-07-13 23:11:00,75.0,63.3,29.13,South,180,12.7,12.7,67,0.00,CLR,,0.06,WeatherDisplay:10.37,2013-07-14 04:11:00,
2013-07-13 23:16:00,75.0,63.3,29.13,South,180,11.5,11.5,67,0.00,CLR,,0.06,WeatherDisplay:10.37,2013-07-14 04:16:00,
2013-07-13 23:21:00,75.0,63.7,29.13,South,180,11.5,11.5,68,0.00,CLR,,0.06,WeatherDisplay:10.37,2013-07-14 04:21:00,
2013-07-13 23:26:00,74.8,64.0,29.13,South,180,11.5,11.5,69,0.00,CLR,,0.06,WeatherDisplay:10.37,2013-07-14 04:26:00,
2013-07-13 23:31:00,74.8,64.4,29.14,South,180,10.4,10.4,70,0.00,CLR,,0.06,WeatherDisplay:10.37,2013-07-14 04:31:00,
2013-07-13 23:36:00,74.8,64.4,29.14,South,180,10.4,10.4,70,0.00,CLR,,0.06,WeatherDisplay:10.37,2013-07-14 04:36:00,
2013-07-13 23:41:00,74.8,63.6,29.14,NNE,22,10.4,10.4,68,0.00,CLR,,0.06,WeatherDisplay:10.37,2013-07-14 04:41:00,
2013-07-13 23:46:00,74.8,63.6,29.15,South,180,9.2,9.2,68,0.00,CLR,,0.06,WeatherDisplay:10.37,2013-07-14 04:46:00,
2013-07-13 23:51:00,74.8,63.6,29.14,South,180,10.4,10.4,68,0.00,CLR,,0.06,WeatherDisplay:10.37,2013-07-14 04:51:00,
2013-07-13 23:56:00,74.8,64.0,29.15,South,180,8.1,8.1,69,0.00,CLR,,0.06,WeatherDisplay:10.37,2013-07-14 04:56:00,